Time;durP1;ratioP1;P1;durP2;ratioP2;P2;SDS_P1;SDS_P2;PMS_P1;PMS_P2;Temp;Humidity;BMP_temperature;BMP_pressure;BME280_temperature;BME280_humidity;BME280_pressure;Samples;Min_cycle;Max_cycle;Signal;HPM_P1;HPM_P2
2022/01/28 00:01:04;;;;;;;3.37;1.97;;;;;;;;;;5075578;28;20488;-89
2022/01/28 00:03:34;;;;;;;6.40;3.67;;;3.20;99.90;;;;;;5074526;28;20446;-91
2022/01/28 00:06:01;;;;;;;8.43;5.20;;;;;;;;;;5073720;28;20454;-92
2022/01/28 00:08:28;;;;;;;5.97;4.40;;;;;;;;;;5073005;28;20443;-90
2022/01/28 00:10:55;;;;;;;6.23;4.40;;;;;;;;;;5075439;28;20446;-90
2022/01/28 00:19:32;;;;;;;5.60;4.47;;;3.30;99.90;;;;;;5075280;28;20521;-90
2022/01/28 00:38:30;;;;;;;5.20;2.53;;;;;;;;;;5075678;28;20509;-90
2022/01/28 00:40:57;;;;;;;4.40;2.93;;;;;;;;;;5072157;28;20531;-88
2022/01/28 00:43:24;;;;;;;6.13;4.27;;;;;;;;;;5072469;28;20442;-88
2022/01/28 00:45:51;;;;;;;5.50;3.70;;;;;;;;;;5076363;28;20445;-89
2022/01/28 00:48:18;;;;;;;6.50;4.43;;;;;;;;;;5078900;28;20868;-89
2022/01/28 00:50:47;;;;;;;9.23;3.80;;;3.20;99.90;;;;;;5079802;28;20445;-89
2022/01/28 00:53:14;;;;;;;3.70;2.87;;;;;;;;;;5079331;28;20513;-88
2022/01/28 00:55:41;;;;;;;7.27;4.20;;;;;;;;;;5078947;28;20446;-89
2022/01/28 00:58:08;;;;;;;3.43;2.50;;;;;;;;;;5078313;28;20446;-88
2022/01/28 01:00:35;;;;;;;2.50;1.70;;;;;;;;;;5075582;28;20446;-89
2022/01/28 01:03:03;;;;;;;5.30;3.33;;;;;;;;;;5074620;28;20945;-88
2022/01/28 01:05:32;;;;;;;4.07;1.80;;;;;;;;;;5078058;28;20778;-88
2022/01/28 01:08:01;;;;;;;3.20;2.10;;;;;;;;;;5078020;28;20453;-89
2022/01/28 01:10:28;;;;;;;3.27;2.30;;;3.20;99.90;;;;;;5073235;28;20466;-89
2022/01/28 01:12:55;;;;;;;3.17;2.10;;;;;;;;;;5077504;28;20988;-88
2022/01/28 01:15:27;;;;;;;4.90;4.13;;;;;;;;;;5074316;28;20482;-90
2022/01/28 01:18:00;;;;;;;6.53;4.70;;;;;;;;;;5077273;28;20828;-90
2022/01/28 01:23:21;;;;;;;6.70;4.47;;;3.20;99.90;;;;;;5078142;28;20484;-90
2022/01/28 01:25:52;;;;;;;3.20;2.43;;;;;;;;;;5077437;28;20472;-89
2022/01/28 01:28:21;;;;;;;1.47;1.23;;;3.10;99.90;;;;;;5077317;28;20443;-87
2022/01/28 01:30:49;;;;;;;4.00;3.47;;;;;;;;;;5073397;28;20457;-91
2022/01/28 01:33:18;;;;;;;4.50;3.30;;;;;;;;;;5078193;28;20490;-91
2022/01/28 01:35:45;;;;;;;3.20;2.37;;;;;;;;;;5075856;28;20450;-89
2022/01/28 01:38:13;;;;;;;6.17;3.67;;;3.00;99.90;;;;;;5077796;28;20445;-91
2022/01/28 01:40:46;;;;;;;6.40;2.70;;;3.10;99.90;;;;;;5074785;28;20474;-87
2022/01/28 01:43:19;;;;;;;10.13;4.57;;;;;;;;;;5077351;28;20968;-90
2022/01/28 01:45:58;;;;;;;6.30;4.10;;;;;;;;;;5076626;28;20451;-94
2022/01/28 01:53:59;;;;;;;4.60;3.27;;;2.80;99.90;;;;;;5082765;28;20554;-90
2022/01/28 01:56:26;;;;;;;3.13;2.03;;;;;;;;;;5079419;28;20450;-89
2022/01/28 01:58:53;;;;;;;9.23;4.13;;;;;;;;;;5079152;28;20451;-92
2022/01/28 02:01:21;;;;;;;4.83;3.43;;;;;;;;;;5077404;28;20860;-93
2022/01/28 02:03:48;;;;;;;3.90;2.10;;;;;;;;;;5082313;28;20516;-89
2022/01/28 02:06:19;;;;;;;6.83;4.40;;;2.70;99.90;;;;;;5083483;28;20442;-88
2022/01/28 02:08:46;;;;;;;5.87;3.07;;;;;;;;;;5081594;28;20977;-91
2022/01/28 02:11:15;;;;;;;5.10;4.00;;;2.80;99.90;;;;;;5076497;28;20445;-94
2022/01/28 02:13:42;;;;;;;4.90;3.93;;;;;;;;;;5078364;28;20474;-88
2022/01/28 02:16:10;;;;;;;5.60;3.53;;;2.70;99.90;;;;;;5076658;28;20457;-90
2022/01/28 02:18:37;;;;;;;5.10;4.03;;;;;;;;;;5076436;28;20446;-89
2022/01/28 02:21:07;;;;;;;5.03;3.33;;;2.60;99.90;;;;;;5072727;28;20446;-90
2022/01/28 02:23:36;;;;;;;3.30;2.00;;;;;;;;;;5076009;28;20457;-91
2022/01/28 02:26:04;;;;;;;7.67;4.60;;;;;;;;;;5075684;28;20450;-89
2022/01/28 02:28:35;;;;;;;3.07;2.60;;;2.60;99.90;;;;;;5075741;28;20496;-89
2022/01/28 02:31:03;;;;;;;3.67;3.13;;;;;;;;;;5073879;28;20442;-93
2022/01/28 02:33:30;;;;;;;2.50;1.97;;;;;;;;;;5075505;28;21051;-89
2022/01/28 02:36:04;;;;;;;1.50;1.37;;;;;;;;;;5075396;28;20863;-89
2022/01/28 02:38:34;;;;;;;4.47;3.47;;;2.60;99.90;;;;;;5074862;28;20446;-89
2022/01/28 02:41:03;;;;;;;3.83;2.10;;;;;;;;;;5074957;28;20576;-91
2022/01/28 02:43:37;;;;;;;2.47;1.87;;;;;;;;;;5072105;28;20450;-89
2022/01/28 02:46:08;;;;;;;6.47;3.50;;;;;;;;;;5074144;28;21300;-89
2022/01/28 02:48:38;;;;;;;6.23;4.03;;;;;;;;;;5075609;28;20538;-90
2022/01/28 02:51:10;;;;;;;5.00;3.60;;;;;;;;;;5073619;28;20965;-89
2022/01/28 02:53:42;;;;;;;4.63;3.13;;;2.40;99.90;;;;;;5075069;28;20584;-89
2022/01/28 02:56:20;;;;;;;9.23;3.73;;;2.30;99.90;;;;;;4994205;28;20541;-90
2022/01/28 02:58:47;;;;;;;4.50;2.83;;;2.30;99.90;;;;;;4991296;28;20453;-88
2022/01/28 03:01:16;;;;;;;8.57;3.73;;;2.40;99.90;;;;;;4992487;28;20446;-89
2022/01/28 03:03:44;;;;;;;3.13;2.50;;;2.30;99.90;;;;;;4993447;28;20442;-90
2022/01/28 03:06:11;;;;;;;4.03;3.00;;;2.30;99.90;;;;;;4989001;28;20452;-89
2022/01/28 03:08:43;;;;;;;6.30;3.53;;;2.30;99.90;;;;;;4993321;28;20856;-88
2022/01/28 03:14:12;;;;;;;3.23;2.50;;;2.20;99.90;;;;;;5020636;28;20595;-89
2022/01/28 03:16:52;;;;;;;3.83;2.47;;;2.10;99.90;;;;;;5070370;28;20500;-93
2022/01/28 03:19:23;;;;;;;3.90;2.40;;;;;;;;;;5075212;28;20449;-89
2022/01/28 03:21:55;;;;;;;5.73;2.80;;;;;;;;;;5074033;28;20478;-89
2022/01/28 03:24:23;;;;;;;3.37;2.40;;;2.20;99.90;;;;;;5075298;28;20453;-90
2022/01/28 03:26:54;;;;;;;4.90;2.07;;;;;;;;;;5072855;28;20442;-93
2022/01/28 03:29:21;;;;;;;2.30;1.93;;;;;;;;;;5077978;28;20456;-90
2022/01/28 03:31:48;;;;;;;4.73;2.70;;;;;;;;;;5077483;28;20445;-90
2022/01/28 03:34:15;;;;;;;7.37;3.30;;;;;;;;;;5078551;28;20449;-89
2022/01/28 03:36:42;;;;;;;5.07;3.10;;;;;;;;;;5078930;28;20446;-92
2022/01/28 03:39:11;;;;;;;5.77;3.90;;;;;;;;;;5073574;28;20561;-88
2022/01/28 03:41:40;;;;;;;3.50;1.00;;;2.30;99.90;;;;;;5075455;28;20867;-88
2022/01/28 03:44:07;;;;;;;4.07;2.90;;;;;;;;;;5074735;28;20446;-88
2022/01/28 03:46:34;;;;;;;2.40;1.50;;;;;;;;;;5076115;28;20444;-89
2022/01/28 03:49:02;;;;;;;2.53;1.77;;;;;;;;;;5078416;28;20434;-89
2022/01/28 03:51:29;;;;;;;3.73;2.23;;;;;;;;;;5067300;28;20438;-88
2022/01/28 03:53:57;;;;;;;6.50;4.37;;;2.40;99.90;;;;;;5071648;28;20499;-89
2022/01/28 03:56:24;;;;;;;3.80;3.17;;;;;;;;;;5072026;28;20454;-91
2022/01/28 03:58:52;;;;;;;2.40;1.30;;;2.40;99.90;;;;;;5071625;28;20927;-90
2022/01/28 04:01:24;;;;;;;6.93;3.77;;;;;;;;;;5073228;28;20447;-88
2022/01/28 04:04:20;;;;;;;4.27;1.90;;;;;;;;;;5074407;28;20493;-88
2022/01/28 04:12:21;;;;;;;5.83;2.77;;;;;;;;;;5047999;28;20817;-89
2022/01/28 04:15:04;;;;;;;4.60;3.77;;;2.50;99.90;;;;;;5068174;28;20424;-91
2022/01/28 04:17:31;;;;;;;1.07;0.83;;;;;;;;;;5072925;28;20800;-89
2022/01/28 04:19:58;;;;;;;1.97;1.53;;;;;;;;;;5074024;28;20826;-90
2022/01/28 04:22:26;;;;;;;14.33;3.33;;;;;;;;;;5077272;28;20450;-89
2022/01/28 04:24:54;;;;;;;5.83;3.77;;;;;;;;;;5073846;28;20446;-93
2022/01/28 04:27:21;;;;;;;5.73;3.63;;;;;;;;;;5075744;28;20449;-89
2022/01/28 04:29:49;;;;;;;8.10;4.07;;;2.50;99.90;;;;;;5081178;28;20453;-89
2022/01/28 04:32:18;;;;;;;5.03;3.00;;;;;;;;;;5080053;28;20446;-91
2022/01/28 04:34:46;;;;;;;6.10;4.43;;;;;;;;;;5080802;28;20446;-88
2022/01/28 04:37:22;;;;;;;8.23;3.87;;;;;;;;;;5081889;28;20527;-89
2022/01/28 04:39:54;;;;;;;7.07;4.30;;;;;;;;;;5078727;28;20515;-89
2022/01/28 04:45:16;;;;;;;2.77;2.37;;;2.30;99.90;;;;;;5047287;28;20521;-89
2022/01/28 04:47:52;;;;;;;3.97;2.80;;;;;;;;;;5077000;28;20807;-91
2022/01/28 04:50:29;;;;;;;4.80;2.53;;;;;;;;;;5081285;28;20472;-89
2022/01/28 04:53:16;;;;;;;3.13;1.90;;;;;;;;;;5079354;28;20496;-93
2022/01/28 04:58:46;;;;;;;5.53;4.30;;;;;;;;;;5077182;28;20972;-92
2022/01/28 05:04:12;;;;;;;9.23;5.20;;;;;;;;;;5081335;28;20972;-90
2022/01/28 05:10:14;;;;;;;4.53;2.87;;;;;;;;;;5064217;28;20434;-90
2022/01/28 05:15:54;;;;;;;6.70;4.40;;;;;;;;;;5006033;28;20441;-91
2022/01/28 05:26:39;;;;;;;8.50;4.60;;;;;;;;;;5079991;28;20513;-90
2022/01/28 05:29:06;;;;;;;7.00;4.97;;;;;;;;;;5079613;28;20977;-90
2022/01/28 05:31:33;;;;;;;2.13;1.37;;;;;;;;;;5080134;28;20442;-90
2022/01/28 05:34:02;;;;;;;6.57;4.00;;;2.10;99.90;;;;;;5079260;28;20498;-90
2022/01/28 05:36:29;;;;;;;4.90;3.77;;;;;;;;;;5079354;28;20442;-90
2022/01/28 05:38:56;;;;;;;7.60;5.07;;;;;;;;;;5080852;28;20438;-89
2022/01/28 05:41:23;;;;;;;10.10;4.10;;;;;;;;;;5077944;28;20438;-91
2022/01/28 05:43:51;;;;;;;8.80;3.67;;;;;;;;;;5081396;28;20437;-91
2022/01/28 05:46:18;;;;;;;4.23;2.73;;;;;;;;;;5077613;28;20837;-89
2022/01/28 05:48:46;;;;;;;8.47;4.87;;;;;;;;;;5079088;28;20446;-90
2022/01/28 05:51:14;;;;;;;4.77;3.27;;;1.90;99.90;;;;;;5078180;28;20438;-92
2022/01/28 05:53:41;;;;;;;7.00;3.87;;;;;;;;;;5073388;28;21016;-89
2022/01/28 05:56:08;;;;;;;9.23;4.87;;;;;;;;;;5075672;28;20454;-89
2022/01/28 05:58:35;;;;;;;5.83;4.17;;;;;;;;;;5076113;28;20450;-90
2022/01/28 06:01:03;;;;;;;8.13;5.53;;;;;;;;;;5078965;28;20442;-89
2022/01/28 06:03:30;;;;;;;4.77;3.83;;;;;;;;;;5079871;28;20450;-91
2022/01/28 06:05:57;;;;;;;3.63;3.00;;;;;;;;;;5080068;28;20450;-88
2022/01/28 06:08:25;;;;;;;5.50;3.60;;;1.80;99.90;;;;;;5079678;28;20797;-90
2022/01/28 06:10:53;;;;;;;4.70;2.93;;;;;;;;;;5075125;28;20442;-92
2022/01/28 06:13:20;;;;;;;5.50;4.20;;;;;;;;;;5079246;28;20494;-91
2022/01/28 06:15:47;;;;;;;7.60;4.87;;;;;;;;;;5078696;28;20474;-88
2022/01/28 06:18:14;;;;;;;6.03;3.47;;;;;;;;;;5077878;28;20445;-92
2022/01/28 06:20:43;;;;;;;10.00;3.80;;;;;;;;;;5072741;28;20952;-90
2022/01/28 06:23:12;;;;;;;6.97;3.90;;;1.80;99.90;;;;;;5080031;28;20458;-90
2022/01/28 06:25:40;;;;;;;6.17;4.13;;;1.80;99.90;;;;;;5080243;28;20442;-89
2022/01/28 06:28:07;;;;;;;3.43;2.37;;;;;;;;;;5074955;28;20466;-92
2022/01/28 06:30:35;;;;;;;5.33;3.57;;;;;;;;;;5078453;28;20444;-90
2022/01/28 06:33:02;;;;;;;9.90;4.30;;;;;;;;;;5077290;28;20487;-92
2022/01/28 06:35:29;;;;;;;4.10;3.17;;;;;;;;;;5077108;28;20449;-94
2022/01/28 06:37:56;;;;;;;7.40;4.50;;;;;;;;;;5075827;28;20449;-90
2022/01/28 06:40:23;;;;;;;6.10;3.10;;;;;;;;;;5073738;28;20856;-93
2022/01/28 06:42:51;;;;;;;7.20;3.90;;;1.80;99.90;;;;;;5073541;28;20438;-92
2022/01/28 06:45:19;;;;;;;3.83;2.93;;;;;;;;;;5081179;28;20442;-91
2022/01/28 06:47:46;;;;;;;2.83;1.40;;;;;;;;;;5074622;28;20446;-93
2022/01/28 06:50:13;;;;;;;6.00;3.10;;;;;;;;;;5076663;28;20441;-92
2022/01/28 06:52:42;;;;;;;8.30;4.77;;;1.90;99.90;;;;;;5076745;28;20430;-93
2022/01/28 06:55:09;;;;;;;7.33;4.23;;;1.80;99.90;;;;;;5070405;28;20462;-93
2022/01/28 06:57:37;;;;;;;8.03;5.30;;;;;;;;;;5071790;28;20438;-93
2022/01/28 07:00:09;;;;;;;10.03;5.00;;;1.90;99.90;;;;;;5076754;28;20441;-92
2022/01/28 07:02:37;;;;;;;9.50;4.27;;;;;;;;;;5071968;28;20435;-92
2022/01/28 07:05:04;;;;;;;9.50;5.63;;;;;;;;;;5075605;28;20490;-92
2022/01/28 07:07:33;;;;;;;7.17;4.73;;;;;;;;;;5073546;28;20430;-93
2022/01/28 07:10:00;;;;;;;5.60;3.90;;;;;;;;;;5073097;28;20488;-93
2022/01/28 07:12:28;;;;;;;4.77;2.83;;;;;;;;;;5075754;28;20442;-94
2022/01/28 07:14:55;;;;;;;7.47;4.43;;;;;;;;;;5075845;28;20478;-94
2022/01/28 07:17:23;;;;;;;9.07;3.50;;;;;;;;;;5039112;28;20497;-93
2022/01/28 07:19:51;;;;;;;7.53;3.97;;;;;;;;;;5074907;28;20442;-94
2022/01/28 07:22:18;;;;;;;8.77;4.03;;;;;;;;;;5081638;28;20540;-91
2022/01/28 07:24:46;;;;;;;6.60;3.87;;;;;;;;;;5077417;28;20465;-92
2022/01/28 07:27:19;;;;;;;11.53;4.87;;;;;;;;;;5076779;28;20473;-94
2022/01/28 07:29:47;;;;;;;8.50;4.00;;;;;;;;;;5075722;28;20454;-92
2022/01/28 07:32:14;;;;;;;3.10;1.40;;;;;;;;;;5072177;28;20438;-91
2022/01/28 07:34:43;;;;;;;11.27;5.23;;;2.20;99.90;;;;;;5078671;28;20490;-94
2022/01/28 07:37:10;;;;;;;10.83;5.47;;;;;;;;;;5076609;28;20909;-93
2022/01/28 07:39:37;;;;;;;5.80;3.23;;;;;;;;;;5072248;28;20481;-94
2022/01/28 07:42:04;;;;;;;5.20;2.30;;;;;;;;;;5069199;28;20850;-93
2022/01/28 07:44:31;;;;;;;4.57;3.17;;;;;;;;;;5067953;28;20955;-93
2022/01/28 07:46:58;;;;;;;3.73;2.43;;;;;;;;;;5073273;28;20442;-94
2022/01/28 07:49:26;;;;;;;3.07;2.67;;;;;;;;;;5077047;28;20805;-90
2022/01/28 07:51:54;;;;;;;10.97;5.63;;;;;;;;;;5077154;28;20453;-94
2022/01/28 07:54:22;;;;;;;5.83;3.90;;;;;;;;;;5079678;28;20494;-91
2022/01/28 07:56:53;;;;;;;7.90;4.77;;;;;;;;;;5092815;28;20434;-91
2022/01/28 07:59:20;;;;;;;2.10;1.70;;;;;;;;;;5081346;28;20485;-91
2022/01/28 08:01:47;;;;;;;7.03;3.00;;;;;;;;;;5080194;28;20442;-89
2022/01/28 08:04:14;;;;;;;8.47;4.43;;;;;;;;;;5080041;28;20442;-92
2022/01/28 08:06:42;;;;;;;8.70;4.87;;;;;;;;;;5076508;28;20434;-92
2022/01/28 08:09:12;;;;;;;3.83;2.43;;;2.70;99.90;;;;;;5082805;28;20439;-93
2022/01/28 08:11:40;;;;;;;3.33;2.57;;;;;;;;;;5117423;22;21036;-91
2022/01/28 08:14:08;;;;;;;7.60;4.73;;;;;;;;;;5079822;28;20466;-91
2022/01/28 08:16:35;;;;;;;8.67;6.00;;;;;;;;;;5080917;28;20448;-90
2022/01/28 08:19:05;;;;;;;5.33;3.20;;;;;;;;;;5077703;28;20472;-93
2022/01/28 08:21:32;;;;;;;6.10;4.57;;;;;;;;;;5085344;28;20498;-89
2022/01/28 08:23:59;;;;;;;5.47;4.10;;;;;;;;;;5079814;28;20457;-93
2022/01/28 08:26:27;;;;;;;7.53;4.80;;;3.00;99.90;;;;;;5075009;28;20462;-93
2022/01/28 08:28:55;;;;;;;2.20;2.00;;;;;;;;;;5074865;28;20442;-91
2022/01/28 08:31:24;;;;;;;5.30;3.97;;;;;;;;;;5074798;28;20438;-92
2022/01/28 08:33:51;;;;;;;4.50;2.50;;;;;;;;;;5084469;28;20523;-91
2022/01/28 08:36:19;;;;;;;4.77;3.60;;;;;;;;;;5096714;22;20482;-91
2022/01/28 08:38:49;;;;;;;9.37;4.30;;;;;;;;;;5005838;28;20466;-92
2022/01/28 08:41:16;;;;;;;6.30;4.37;;;;;;;;;;5007673;28;20469;-91
2022/01/28 08:43:45;;;;;;;6.00;3.80;;;3.20;99.90;;;;;;5074040;23;21012;-91
2022/01/28 08:46:12;;;;;;;6.53;4.40;;;;;;;;;;5084038;28;20457;-92
2022/01/28 08:48:39;;;;;;;6.20;3.80;;;;;;;;;;5089558;22;21003;-92
2022/01/28 08:51:07;;;;;;;7.77;4.00;;;3.40;99.90;;;;;;5080780;28;20446;-92
2022/01/28 08:53:36;;;;;;;5.73;3.00;;;;;;;;;;5080777;28;20446;-93
2022/01/28 08:56:04;;;;;;;6.17;3.50;;;;;;;;;;5081477;28;20445;-93
2022/01/28 08:58:31;;;;;;;6.07;3.57;;;;;;;;;;5072669;28;20450;-91
2022/01/28 09:01:00;;;;;;;2.97;2.23;;;;;;;;;;5077384;28;20437;-92
2022/01/28 09:03:33;;;;;;;6.27;4.33;;;3.60;99.90;;;;;;5073517;28;20457;-93
2022/01/28 09:06:15;;;;;;;6.50;3.50;;;;;;;;;;5068750;28;20514;-93
2022/01/28 09:08:53;;;;;;;2.13;1.97;;;;;;;;;;5074088;28;20442;-92
2022/01/28 09:14:21;;;;;;;8.87;3.30;;;;;;;;;;5075652;28;20848;-92
2022/01/28 09:16:52;;;;;;;3.23;1.60;;;;;;;;;;5086405;28;20522;-94
2022/01/28 09:19:25;;;;;;;6.53;3.30;;;;;;;;;;5084348;28;20465;-95
2022/01/28 09:21:54;;;;;;;2.23;1.60;;;;;;;;;;5018408;28;20507;-91
2022/01/28 09:24:25;;;;;;;2.63;2.07;;;;;;;;;;5034759;28;20452;-94
2022/01/28 09:26:59;;;;;;;3.43;2.07;;;;;;;;;;5034712;28;20472;-91
2022/01/28 09:29:29;;;;;;;12.27;4.30;;;;;;;;;;5034855;28;20457;-93
2022/01/28 09:32:03;;;;;;;3.53;2.10;;;;;;;;;;5031793;28;20456;-93
2022/01/28 09:34:33;;;;;;;5.57;3.60;;;;;;;;;;5032853;28;20618;-94
2022/01/28 09:37:03;;;;;;;8.70;5.27;;;;;;;;;;5034920;28;20542;-93
2022/01/28 09:39:33;;;;;;;6.43;4.40;;;;;;;;;;5042223;28;20450;-91
2022/01/28 09:42:03;;;;;;;4.70;3.53;;;;;;;;;;5076473;28;20474;-92
2022/01/28 09:44:32;;;;;;;8.77;3.67;;;4.30;99.90;;;;;;5078523;28;20450;-92
2022/01/28 09:47:01;;;;;;;6.10;3.50;;;4.30;99.90;;;;;;5092748;28;20488;-92
2022/01/28 09:49:29;;;;;;;6.10;3.43;;;;;;;;;;5091827;28;20445;-92
2022/01/28 09:51:56;;;;;;;5.57;1.90;;;;;;;;;;5092241;28;20524;-94
2022/01/28 09:54:23;;;;;;;11.30;2.70;;;;;;;;;;5088238;28;20473;-92
2022/01/28 09:56:51;;;;;;;2.10;1.87;;;;;;;;;;5097065;28;20460;-93
2022/01/28 09:59:18;;;;;;;6.77;2.77;;;;;;;;;;5096413;28;20446;-93
2022/01/28 10:01:49;;;;;;;3.00;1.50;;;4.90;99.90;;;;;;5099069;28;20520;-93
2022/01/28 10:04:18;;;;;;;3.20;1.80;;;4.90;99.90;;;;;;5065401;28;20507;-92
2022/01/28 10:06:49;;;;;;;4.37;2.30;;;4.90;99.90;;;;;;5100777;28;20449;-93
2022/01/28 10:09:18;;;;;;;4.00;2.30;;;5.00;99.90;;;;;;5093839;28;20529;-94
2022/01/28 10:11:47;;;;;;;3.57;1.83;;;;;;;;;;5095372;28;20454;-93
2022/01/28 10:14:17;;;;;;;2.70;1.70;;;;;;;;;;5094192;28;20492;-93
2022/01/28 10:16:56;;;;;;;1.53;0.90;;;4.90;99.90;;;;;;5095799;28;20447;-94
2022/01/28 10:19:26;;;;;;;4.80;2.30;;;4.90;99.90;;;;;;5092805;28;20432;-93
2022/01/28 10:21:53;;;;;;;2.40;1.77;;;;;;;;;;5095231;28;20490;-94
2022/01/28 10:24:21;;;;;;;1.73;0.97;;;5.00;99.90;;;;;;5089029;28;20428;-92
2022/01/28 10:26:50;;;;;;;5.50;1.53;;;5.00;99.90;;;;;;5098578;28;20439;-94
2022/01/28 10:29:19;;;;;;;6.07;1.80;;;5.40;99.90;;;;;;5093053;28;20430;-93
2022/01/28 10:31:49;;;;;;;0.93;0.73;;;5.10;99.90;;;;;;5096102;28;20434;-91
2022/01/28 10:34:22;;;;;;;2.50;1.13;;;5.10;99.90;;;;;;5090063;28;20969;-93
2022/01/28 10:36:51;;;;;;;4.23;1.90;;;5.10;99.90;;;;;;5095819;28;20804;-92
2022/01/28 10:39:21;;;;;;;6.57;2.23;;;5.20;99.90;;;;;;5087105;28;20446;-92
2022/01/28 10:41:54;;;;;;;4.03;1.63;;;5.30;99.90;;;;;;5094481;28;20481;-92
2022/01/28 10:44:21;;;;;;;8.93;3.07;;;;;;;;;;5090955;28;20451;-94
2022/01/28 10:46:53;;;;;;;7.73;1.77;;;5.40;99.90;;;;;;5096735;28;20448;-93
2022/01/28 10:49:20;;;;;;;3.27;1.90;;;;;;;;;;5030882;28;20440;-94
2022/01/28 10:51:50;;;;;;;7.33;1.93;;;5.50;99.90;;;;;;5001328;28;20444;-93
2022/01/28 10:54:19;;;;;;;3.47;1.27;;;5.60;99.90;;;;;;5003907;28;20481;-93
2022/01/28 10:56:48;;;;;;;4.17;1.30;;;6.20;99.90;;;;;;5001904;28;20492;-94
2022/01/28 10:59:20;;;;;;;3.43;1.20;;;6.30;99.90;;;;;;5039804;28;20597;-92
2022/01/28 11:01:47;;;;;;;6.90;2.97;;;6.50;99.90;;;;;;5067255;28;20456;-94
2022/01/28 11:04:16;;;;;;;6.60;2.10;;;6.40;99.90;;;;;;5081546;28;20439;-92
2022/01/28 11:06:44;;;;;;;5.83;1.37;;;6.70;99.90;;;;;;5091451;28;20452;-95
2022/01/28 11:09:15;;;;;;;1.80;0.67;;;6.40;99.90;;;;;;5108240;28;20449;-93
2022/01/28 11:11:42;;;;;;;1.07;0.47;;;;;;;;;;5084780;28;20454;-92
2022/01/28 11:14:21;;;;;;;4.50;1.23;;;5.60;99.90;;;;;;5080053;28;20432;-92
2022/01/28 11:16:50;;;;;;;3.30;1.00;;;5.80;99.90;;;;;;5081539;28;20447;-93
2022/01/28 11:19:22;;;;;;;4.90;1.23;;;5.70;99.90;;;;;;5070189;28;20938;-93
2022/01/28 11:22:09;;;;;;;4.03;1.17;;;5.70;99.90;;;;;;5072047;28;20977;-92
2022/01/28 11:25:09;;;;;;;2.20;1.10;;;5.90;99.90;;;;;;5070533;28;20469;-93
2022/01/28 11:27:40;;;;;;;2.30;1.43;;;6.10;99.90;;;;;;5027576;28;20514;-93
2022/01/28 11:30:20;;;;;;;4.27;1.90;;;6.70;99.90;;;;;;5031099;28;20441;-89
2022/01/28 11:33:04;;;;;;;6.77;1.60;;;6.40;99.90;;;;;;5001484;28;20469;-93
2022/01/28 11:35:38;;;;;;;5.03;1.80;;;6.40;99.90;;;;;;5031370;28;20500;-92
2022/01/28 11:38:36;;;;;;;1.87;1.40;;;6.20;99.90;;;;;;5031051;28;20461;-92
2022/01/28 11:41:09;;;;;;;4.50;2.23;;;5.80;99.90;;;;;;5032491;28;20527;-94
2022/01/28 11:43:46;;;;;;;3.33;1.33;;;5.70;99.90;;;;;;5034996;28;20444;-91
2022/01/28 11:46:21;;;;;;;2.40;1.43;;;5.70;99.90;;;;;;5034934;28;20502;-93
2022/01/28 11:49:19;;;;;;;3.37;1.47;;;5.80;99.90;;;;;;5032362;28;20476;-94
2022/01/28 11:51:47;;;;;;;4.77;2.03;;;;;;;;;;5035303;28;20547;-93
2022/01/28 11:54:16;;;;;;;3.90;1.43;;;5.70;99.90;;;;;;5034681;28;20443;-94
2022/01/28 11:57:11;;;;;;;3.27;1.80;;;5.70;99.90;;;;;;5033335;28;20817;-92
2022/01/28 11:59:38;;;;;;;4.93;1.70;;;;;;;;;;5037950;28;20456;-92
2022/01/28 12:02:11;;;;;;;3.50;1.30;;;5.70;99.90;;;;;;5036648;28;20448;-91
2022/01/28 12:04:41;;;;;;;2.10;1.13;;;5.50;99.90;;;;;;5038150;28;20438;-94
2022/01/28 12:07:13;;;;;;;4.60;1.70;;;5.40;99.90;;;;;;5032624;28;20450;-94
2022/01/28 12:09:40;;;;;;;6.70;1.63;;;;;;;;;;5031979;28;20505;-92
2022/01/28 12:12:14;;;;;;;1.93;1.63;;;5.70;99.90;;;;;;5031362;28;20969;-93
2022/01/28 12:15:03;;;;;;;1.53;0.80;;;5.40;99.90;;;;;;5029604;28;20459;-93
2022/01/28 12:17:43;;;;;;;2.40;1.30;;;5.40;99.90;;;;;;5015298;28;20465;-93
2022/01/28 12:20:35;;;;;;;5.20;1.33;;;6.30;99.90;;;;;;5021429;28;20957;-92
2022/01/28 12:23:37;;;;;;;2.97;1.40;;;6.50;99.90;;;;;;5002811;28;20470;-92
2022/01/28 12:26:05;;;;;;;2.90;1.27;;;;;;;;;;5013906;28;20470;-92
2022/01/28 12:29:05;;;;;;;3.73;1.60;;;5.90;99.90;;;;;;5011752;28;20435;-93
2022/01/28 12:31:33;;;;;;;2.97;1.77;;;5.90;99.90;;;;;;5017429;28;20446;-92
2022/01/28 12:34:02;;;;;;;2.50;1.23;;;5.90;99.90;;;;;;4931124;28;20493;-89
2022/01/28 12:36:38;;;;;;;3.57;1.67;;;6.40;99.90;;;;;;5019227;28;20497;-92
2022/01/28 12:39:20;;;;;;;9.83;1.63;;;6.70;99.90;;;;;;5020671;28;20440;-91
2022/01/28 12:41:54;;;;;;;3.73;1.53;;;6.30;99.90;;;;;;5018574;28;20457;-90
2022/01/28 12:44:24;;;;;;;7.03;2.00;;;6.00;99.90;;;;;;5015844;28;20448;-91
2022/01/28 12:46:56;;;;;;;3.57;1.63;;;6.00;99.90;;;;;;5012288;28;20470;-90
2022/01/28 12:49:28;;;;;;;5.93;2.00;;;5.90;99.90;;;;;;5015343;28;20454;-90
2022/01/28 12:51:57;;;;;;;6.30;2.23;;;6.80;99.90;;;;;;5021722;28;20453;-90
2022/01/28 12:54:37;;;;;;;5.53;2.13;;;6.90;99.90;;;;;;5015046;28;20452;-93
2022/01/28 12:57:06;;;;;;;2.77;0.80;;;6.70;99.90;;;;;;5015235;28;20519;-91
2022/01/28 12:59:47;;;;;;;7.07;1.63;;;;;;;;;;5050650;23;20492;-93
2022/01/28 13:02:18;;;;;;;6.50;1.90;;;;;;;;;;5069643;28;20950;-94
2022/01/28 13:04:55;;;;;;;3.33;1.57;;;;;;;;;;5060884;28;20458;-92
2022/01/28 13:10:04;;;;;;;2.77;1.40;;;;;;;;;;5025062;28;20444;-93
2022/01/28 13:12:32;;;;;;;4.77;1.73;;;5.90;99.90;;;;;;5053934;28;20464;-93
2022/01/28 13:15:05;;;;;;;5.10;2.10;;;;;;;;;;5061956;28;20480;-93
2022/01/28 13:17:33;;;;;;;3.20;1.80;;;;;;;;;;5074577;28;20818;-93
2022/01/28 13:20:02;;;;;;;6.00;3.10;;;6.00;99.90;;;;;;5073421;28;20475;-94
2022/01/28 13:22:31;;;;;;;10.73;4.17;;;6.60;99.90;;;;;;5077542;28;20456;-94
2022/01/28 13:24:59;;;;;;;4.20;2.53;;;;;;;;;;5079087;28;20459;-91
2022/01/28 13:27:39;;;;;;;1.20;1.10;;;7.50;99.90;;;;;;5090372;28;20972;-92
2022/01/28 13:30:13;;;;;;;3.87;2.03;;;7.50;99.90;;;;;;5090105;28;20453;-92
2022/01/28 13:32:41;;;;;;;5.07;2.40;;;;;;;;;;5079652;28;20471;-90
2022/01/28 13:35:14;;;;;;;2.63;1.50;;;5.80;99.90;;;;;;5074384;28;20473;-89
2022/01/28 13:37:43;;;;;;;2.80;2.20;;;5.40;99.90;;;;;;5076843;28;20430;-92
2022/01/28 13:40:13;;;;;;;5.33;2.50;;;5.20;99.90;;;;;;5074439;28;20552;-93
2022/01/28 13:42:58;;;;;;;4.53;2.90;;;5.20;99.90;;;;;;5067779;28;20435;-93
2022/01/28 13:45:32;;;;;;;7.73;3.90;;;5.10;99.90;;;;;;5072549;28;20950;-94
2022/01/28 13:47:59;;;;;;;9.53;3.93;;;;;;;;;;5074409;28;20883;-92
2022/01/28 13:50:29;;;;;;;5.80;2.67;;;5.10;99.90;;;;;;5078339;28;20473;-91
2022/01/28 13:53:18;;;;;;;5.47;3.50;;;5.00;99.90;;;;;;5072593;28;20593;-92
2022/01/28 13:55:46;;;;;;;5.17;3.50;;;;;;;;;;5073728;28;20485;-92
2022/01/28 13:58:14;;;;;;;5.83;4.00;;;5.20;99.90;;;;;;5073367;28;20446;-91
2022/01/28 14:00:45;;;;;;;6.00;2.90;;;5.40;99.90;;;;;;5073993;28;20835;-92
2022/01/28 14:03:17;;;;;;;5.93;3.50;;;5.10;99.90;;;;;;5072561;28;20518;-93
2022/01/28 14:05:51;;;;;;;3.80;2.87;;;5.10;99.90;;;;;;5076340;28;20456;-90
2022/01/28 14:08:39;;;;;;;3.50;2.27;;;4.90;99.90;;;;;;5075977;28;20457;-92
2022/01/28 14:11:31;;;;;;;3.27;2.10;;;4.70;99.90;;;;;;5070783;28;20431;-92
2022/01/28 14:14:13;;;;;;;4.27;2.93;;;4.80;99.90;;;;;;5067854;28;20530;-93
2022/01/28 14:16:41;;;;;;;1.60;1.50;;;4.60;99.90;;;;;;5071939;28;20532;-93
2022/01/28 14:19:10;;;;;;;5.47;2.50;;;;;;;;;;5071876;28;20506;-93
2022/01/28 14:21:37;;;;;;;6.03;3.57;;;;;;;;;;5071119;28;20816;-90
2022/01/28 14:24:06;;;;;;;7.10;3.33;;;;;;;;;;5073246;28;20472;-93
2022/01/28 14:26:38;;;;;;;4.77;3.40;;;;;;;;;;5072820;28;20881;-92
2022/01/28 14:29:36;;;;;;;4.03;1.77;;;;;;;;;;5076313;28;20434;-92
2022/01/28 14:32:07;;;;;;;8.70;4.13;;;4.80;99.90;;;;;;5076674;28;20481;-92
2022/01/28 14:34:35;;;;;;;10.50;4.80;;;4.80;99.90;;;;;;5079452;28;20438;-92
2022/01/28 14:37:03;;;;;;;7.50;4.00;;;4.80;99.90;;;;;;5078935;28;20888;-92
2022/01/28 14:39:30;;;;;;;1.93;1.50;;;;;;;;;;5051284;28;20946;-92
2022/01/28 14:42:02;;;;;;;17.10;6.10;;;;;;;;;;5055894;28;20439;-91
2022/01/28 14:44:29;;;;;;;9.10;4.67;;;;;;;;;;5052453;28;20447;-91
2022/01/28 14:46:56;;;;;;;6.80;4.83;;;;;;;;;;5051641;28;20490;-93
2022/01/28 14:49:25;;;;;;;7.60;4.23;;;5.00;99.90;;;;;;5053664;28;20443;-92
2022/01/28 14:51:57;;;;;;;6.53;2.73;;;5.00;99.90;;;;;;4989082;28;20446;-91
2022/01/28 14:54:26;;;;;;;6.70;2.30;;;;;;;;;;4982314;28;20509;-92
2022/01/28 14:56:54;;;;;;;6.43;3.77;;;;;;;;;;4982178;28;20502;-91
2022/01/28 14:59:21;;;;;;;7.70;2.10;;;;;;;;;;4984275;28;20521;-92
2022/01/28 15:01:48;;;;;;;5.40;3.70;;;;;;;;;;4982898;28;21040;-91
2022/01/28 15:04:16;;;;;;;4.13;3.20;;;;;;;;;;4973072;28;20458;-93
2022/01/28 15:06:45;;;;;;;5.33;2.80;;;4.70;99.90;;;;;;4983453;28;20455;-91
2022/01/28 15:09:12;;;;;;;4.07;1.90;;;;;;;;;;4979453;28;20478;-90
2022/01/28 15:11:46;;;;;;;8.97;3.27;;;;;;;;;;4978907;28;20467;-89
2022/01/28 15:14:14;;;;;;;8.00;5.20;;;4.60;99.90;;;;;;4984340;28;20450;-89
2022/01/28 15:16:42;;;;;;;2.30;1.57;;;;;;;;;;4973005;28;20489;-92
2022/01/28 15:19:09;;;;;;;7.13;3.20;;;;;;;;;;4984642;28;20463;-92
2022/01/28 15:21:36;;;;;;;4.20;2.50;;;;;;;;;;4973279;28;20455;-89
2022/01/28 15:24:05;;;;;;;1.70;1.33;;;4.30;99.90;;;;;;4984048;28;20916;-90